AUA23N EDDB-LOWW
Flight info
| Callsign | AUA23N |
|---|---|
| Flight time | 1h 25m |
| Altitude | 29000 |
| Route | LUROS3Q/06R LUROS M725 HDO DCT EVIKU DCT BITSI DCT MIKOV MIKOV8W |
| Aircraft | A320/M-SDE3FGHIRWY/LB1 |
Departure
| Time | 2026-05-06 18:48 |
|---|---|
| Airport | Berlin Brandenburg Airport (EDDB) |
Arrival
| Time | 2026-05-06 20:13 |
|---|---|
| Airport | Vienna International Airport (LOWW) |
| Time | Latitude | Longitude | Altitude | Speed | Heading |
|---|---|---|---|---|---|
| 2026-05-06 18:13 | 52.36181 | 13.50769 | 159 ft | 0 kts | 69° |
| 2026-05-06 18:33 | 52.36178 | 13.50757 | 159 ft | 4 kts | 69° |
| 2026-05-06 18:34 | 52.36168 | 13.50716 | 159 ft | 4 kts | 68° |
| 2026-05-06 18:34 | 52.36158 | 13.50675 | 159 ft | 4 kts | 68° |
| 2026-05-06 18:34 | 52.36148 | 13.50634 | 159 ft | 4 kts | 67° |
| 2026-05-06 18:34 | 52.36140 | 13.50606 | 159 ft | 4 kts | 105° |
| 2026-05-06 18:35 | 52.36154 | 13.50586 | 159 ft | 3 kts | 158° |
| 2026-05-06 18:35 | 52.36177 | 13.50572 | 159 ft | 2 kts | 159° |
| 2026-05-06 18:35 | 52.36178 | 13.50571 | 159 ft | 0 kts | 159° |
| 2026-05-06 18:39 | 52.36115 | 13.50611 | 158 ft | 12 kts | 158° |
| 2026-05-06 18:40 | 52.35946 | 13.50717 | 159 ft | 16 kts | 159° |
| 2026-05-06 18:40 | 52.35846 | 13.50776 | 158 ft | 14 kts | 172° |
| 2026-05-06 18:40 | 52.35788 | 13.50677 | 158 ft | 12 kts | 248° |
| 2026-05-06 18:40 | 52.35756 | 13.50551 | 158 ft | 11 kts | 248° |
| 2026-05-06 18:41 | 52.35709 | 13.50353 | 158 ft | 26 kts | 249° |
| 2026-05-06 18:41 | 52.35650 | 13.50098 | 158 ft | 20 kts | 249° |
| 2026-05-06 18:41 | 52.35604 | 13.49906 | 158 ft | 16 kts | 248° |
| 2026-05-06 18:41 | 52.35565 | 13.49743 | 158 ft | 15 kts | 248° |
| 2026-05-06 18:42 | 52.35511 | 13.49515 | 158 ft | 24 kts | 249° |
| 2026-05-06 18:42 | 52.35450 | 13.49255 | 162 ft | 25 kts | 248° |
| 2026-05-06 18:42 | 52.35384 | 13.48981 | 158 ft | 24 kts | 248° |
| 2026-05-06 18:42 | 52.35323 | 13.48722 | 158 ft | 22 kts | 249° |
| 2026-05-06 18:43 | 52.35277 | 13.48531 | 158 ft | 15 kts | 244° |
| 2026-05-06 18:43 | 52.35196 | 13.48496 | 158 ft | 13 kts | 161° |
| 2026-05-06 18:43 | 52.35123 | 13.48548 | 158 ft | 0 kts | 141° |
| 2026-05-06 18:44 | 52.35123 | 13.48549 | 158 ft | 0 kts | 141° |
| 2026-05-06 18:46 | 52.35105 | 13.48614 | 157 ft | 18 kts | 103° |
| 2026-05-06 18:47 | 52.35083 | 13.48843 | 155 ft | 22 kts | 96° |
| 2026-05-06 18:47 | 52.35087 | 13.49107 | 154 ft | 24 kts | 72° |
| 2026-05-06 18:47 | 52.35183 | 13.49524 | 156 ft | 70 kts | 69° |
| 2026-05-06 18:47 | 52.35439 | 13.50606 | 157 ft | 131 kts | 69° |
| 2026-05-06 18:48 | 52.35805 | 13.52140 | 460 ft | 150 kts | 72° |
| 2026-05-06 18:48 | 52.35805 | 13.53874 | 982 ft | 160 kts | 105° |
| 2026-05-06 18:48 | 52.35130 | 13.55372 | 1615 ft | 171 kts | 141° |
| 2026-05-06 18:48 | 52.34082 | 13.56470 | 2045 ft | 189 kts | 144° |
| 2026-05-06 18:49 | 52.32919 | 13.57684 | 2522 ft | 203 kts | 144° |
| 2026-05-06 18:49 | 52.31719 | 13.58961 | 3181 ft | 208 kts | 142° |
| 2026-05-06 18:49 | 52.30884 | 13.60863 | 3801 ft | 213 kts | 105° |
| 2026-05-06 18:49 | 52.30838 | 13.63334 | 4245 ft | 229 kts | 76° |
| 2026-05-06 18:50 | 52.31376 | 13.65882 | 4729 ft | 243 kts | 69° |
| 2026-05-06 18:50 | 52.31938 | 13.68537 | 4985 ft | 250 kts | 71° |
| 2026-05-06 18:50 | 52.32487 | 13.71258 | 5683 ft | 252 kts | 71° |
| 2026-05-06 18:50 | 52.32893 | 13.74060 | 6536 ft | 257 kts | 85° |
| 2026-05-06 18:51 | 52.32875 | 13.77056 | 6987 ft | 279 kts | 94° |
| 2026-05-06 18:51 | 52.32752 | 13.80311 | 7617 ft | 292 kts | 95° |
| 2026-05-06 18:51 | 52.32620 | 13.83654 | 8473 ft | 297 kts | 95° |
| 2026-05-06 18:51 | 52.32486 | 13.87047 | 9364 ft | 301 kts | 96° |
| 2026-05-06 18:52 | 52.32345 | 13.90491 | 10162 ft | 308 kts | 98° |
| 2026-05-06 18:52 | 52.31766 | 13.93950 | 10441 ft | 326 kts | 121° |
| 2026-05-06 18:52 | 52.30304 | 13.96856 | 10749 ft | 339 kts | 146° |
| 2026-05-06 18:52 | 52.28189 | 13.98511 | 11364 ft | 339 kts | 169° |
| 2026-05-06 18:53 | 52.25869 | 13.99261 | 12138 ft | 341 kts | 173° |
| 2026-05-06 18:53 | 52.23519 | 13.99950 | 12940 ft | 345 kts | 173° |
| 2026-05-06 18:53 | 52.21146 | 14.00626 | 13708 ft | 348 kts | 173° |
| 2026-05-06 18:53 | 52.18747 | 14.01307 | 14376 ft | 352 kts | 173° |
| 2026-05-06 18:54 | 52.16323 | 14.02000 | 15020 ft | 356 kts | 173° |
| 2026-05-06 18:54 | 52.13874 | 14.02701 | 15702 ft | 359 kts | 173° |
| 2026-05-06 18:54 | 52.11431 | 14.03404 | 16370 ft | 362 kts | 173° |
| 2026-05-06 18:54 | 52.08941 | 14.04126 | 17044 ft | 365 kts | 173° |
| 2026-05-06 18:55 | 52.06434 | 14.04851 | 17709 ft | 368 kts | 173° |
| 2026-05-06 18:55 | 52.03893 | 14.05584 | 18341 ft | 371 kts | 173° |
| 2026-05-06 18:55 | 52.01345 | 14.06320 | 18925 ft | 374 kts | 173° |
| 2026-05-06 18:55 | 51.98776 | 14.07066 | 19543 ft | 376 kts | 173° |
| 2026-05-06 18:56 | 51.96193 | 14.07814 | 20156 ft | 378 kts | 173° |
| 2026-05-06 18:56 | 51.93594 | 14.08564 | 20767 ft | 380 kts | 173° |
| 2026-05-06 18:56 | 51.90979 | 14.09318 | 21358 ft | 383 kts | 173° |
| 2026-05-06 18:56 | 51.88353 | 14.10073 | 21965 ft | 384 kts | 173° |
| 2026-05-06 18:57 | 51.85710 | 14.10826 | 22515 ft | 387 kts | 173° |
| 2026-05-06 18:57 | 51.83049 | 14.11583 | 23055 ft | 390 kts | 173° |
| 2026-05-06 18:57 | 51.80364 | 14.12348 | 23547 ft | 392 kts | 173° |
| 2026-05-06 18:57 | 51.77675 | 14.13115 | 23984 ft | 394 kts | 173° |
| 2026-05-06 18:58 | 51.74968 | 14.13888 | 24425 ft | 396 kts | 173° |
| 2026-05-06 18:58 | 51.72248 | 14.14668 | 24843 ft | 398 kts | 173° |
| 2026-05-06 18:58 | 51.69517 | 14.15445 | 25254 ft | 399 kts | 173° |
| 2026-05-06 18:58 | 51.66775 | 14.16218 | 25680 ft | 401 kts | 173° |
| 2026-05-06 18:59 | 51.64023 | 14.16992 | 26094 ft | 402 kts | 173° |
| 2026-05-06 18:59 | 51.61261 | 14.17769 | 26484 ft | 404 kts | 173° |
| 2026-05-06 18:59 | 51.58489 | 14.18551 | 26888 ft | 405 kts | 173° |
| 2026-05-06 18:59 | 51.55708 | 14.19341 | 27265 ft | 407 kts | 173° |
| 2026-05-06 19:00 | 51.52918 | 14.20132 | 27621 ft | 409 kts | 174° |
| 2026-05-06 19:00 | 51.50109 | 14.20927 | 27986 ft | 411 kts | 174° |
| 2026-05-06 19:00 | 51.47289 | 14.21725 | 28337 ft | 412 kts | 174° |
| 2026-05-06 19:00 | 51.44458 | 14.22525 | 28679 ft | 414 kts | 174° |
| 2026-05-06 19:01 | 51.41622 | 14.23323 | 28779 ft | 411 kts | 174° |
| 2026-05-06 19:01 | 51.36032 | 14.24897 | 28802 ft | 406 kts | 174° |
| 2026-05-06 19:02 | 51.30505 | 14.26446 | 28803 ft | 406 kts | 174° |
| 2026-05-06 19:02 | 51.24946 | 14.27998 | 28797 ft | 405 kts | 174° |
| 2026-05-06 19:03 | 51.19386 | 14.29532 | 28794 ft | 405 kts | 174° |
| 2026-05-06 19:03 | 51.13829 | 14.31076 | 28776 ft | 405 kts | 174° |
| 2026-05-06 19:04 | 51.08273 | 14.32614 | 28772 ft | 406 kts | 174° |
| 2026-05-06 19:04 | 51.02697 | 14.34152 | 28777 ft | 407 kts | 174° |
| 2026-05-06 19:05 | 50.97153 | 14.35678 | 28781 ft | 407 kts | 174° |
| 2026-05-06 19:05 | 50.91581 | 14.37243 | 28772 ft | 407 kts | 173° |
| 2026-05-06 19:06 | 50.86041 | 14.39214 | 28763 ft | 409 kts | 171° |
| 2026-05-06 19:06 | 50.80507 | 14.41389 | 28762 ft | 410 kts | 170° |
| 2026-05-06 19:07 | 50.74965 | 14.43522 | 28762 ft | 410 kts | 171° |
| 2026-05-06 19:07 | 50.69415 | 14.45588 | 28759 ft | 410 kts | 171° |
| 2026-05-06 19:08 | 50.63861 | 14.47617 | 28751 ft | 410 kts | 171° |
| 2026-05-06 19:08 | 50.58303 | 14.49645 | 28752 ft | 410 kts | 171° |
| 2026-05-06 19:09 | 50.52743 | 14.51693 | 28760 ft | 410 kts | 171° |
| 2026-05-06 19:09 | 50.47293 | 14.54243 | 28732 ft | 417 kts | 159° |
| 2026-05-06 19:10 | 50.42507 | 14.59534 | 28746 ft | 429 kts | 141° |
| 2026-05-06 19:10 | 50.38229 | 14.66067 | 28736 ft | 430 kts | 141° |
| 2026-05-06 19:11 | 50.33932 | 14.72579 | 28743 ft | 430 kts | 141° |
| 2026-05-06 19:11 | 50.29618 | 14.79083 | 28751 ft | 431 kts | 141° |
| 2026-05-06 19:12 | 50.25292 | 14.85588 | 28748 ft | 432 kts | 141° |
| 2026-05-06 19:12 | 50.20964 | 14.92100 | 28742 ft | 432 kts | 141° |
| 2026-05-06 19:13 | 50.16624 | 14.98604 | 28742 ft | 433 kts | 141° |
| 2026-05-06 19:13 | 50.12265 | 15.05099 | 28746 ft | 433 kts | 141° |
| 2026-05-06 19:14 | 50.07936 | 15.11539 | 28755 ft | 433 kts | 141° |
| 2026-05-06 19:14 | 50.03575 | 15.18015 | 28751 ft | 433 kts | 141° |
| 2026-05-06 19:15 | 49.99220 | 15.24476 | 28735 ft | 433 kts | 142° |
| 2026-05-06 19:15 | 49.94853 | 15.30928 | 28739 ft | 433 kts | 142° |
| 2026-05-06 19:16 | 49.90475 | 15.37372 | 28744 ft | 433 kts | 142° |
| 2026-05-06 19:16 | 49.86102 | 15.43802 | 28750 ft | 433 kts | 142° |
| 2026-05-06 19:17 | 49.81729 | 15.50219 | 28752 ft | 433 kts | 143° |
| 2026-05-06 19:17 | 49.77388 | 15.56570 | 28717 ft | 432 kts | 143° |
| 2026-05-06 19:18 | 49.73011 | 15.62954 | 28732 ft | 432 kts | 143° |
| 2026-05-06 19:18 | 49.68636 | 15.69312 | 28731 ft | 432 kts | 143° |
| 2026-05-06 19:19 | 49.64251 | 15.75670 | 28738 ft | 432 kts | 143° |
| 2026-05-06 19:19 | 49.59866 | 15.82022 | 28729 ft | 432 kts | 143° |
| 2026-05-06 19:20 | 49.55476 | 15.88357 | 28736 ft | 432 kts | 143° |
| 2026-05-06 19:20 | 49.51116 | 15.94642 | 28756 ft | 427 kts | 143° |
| 2026-05-06 19:20 | 49.48945 | 15.97764 | 28460 ft | 428 kts | 143° |
| 2026-05-06 19:21 | 49.46782 | 16.00869 | 28167 ft | 422 kts | 143° |
| 2026-05-06 19:21 | 49.44652 | 16.03924 | 27754 ft | 416 kts | 144° |
| 2026-05-06 19:21 | 49.42546 | 16.06935 | 27283 ft | 412 kts | 144° |
| 2026-05-06 19:21 | 49.40455 | 16.09918 | 26818 ft | 409 kts | 144° |
| 2026-05-06 19:22 | 49.38380 | 16.12873 | 26356 ft | 405 kts | 143° |
| 2026-05-06 19:22 | 49.36364 | 16.15885 | 25898 ft | 407 kts | 136° |
| 2026-05-06 19:22 | 49.34880 | 16.19615 | 25456 ft | 417 kts | 118° |
| 2026-05-06 19:22 | 49.33863 | 16.23733 | 24997 ft | 417 kts | 115° |
| 2026-05-06 19:23 | 49.32872 | 16.27899 | 24561 ft | 415 kts | 115° |
| 2026-05-06 19:23 | 49.31885 | 16.32033 | 24137 ft | 411 kts | 115° |
| 2026-05-06 19:23 | 49.30904 | 16.36136 | 23718 ft | 408 kts | 115° |
| 2026-05-06 19:23 | 49.29927 | 16.40216 | 23297 ft | 405 kts | 115° |
| 2026-05-06 19:24 | 49.28960 | 16.44246 | 22808 ft | 402 kts | 115° |
| 2026-05-06 19:24 | 49.27997 | 16.48252 | 22322 ft | 399 kts | 115° |
| 2026-05-06 19:24 | 49.27039 | 16.52224 | 21843 ft | 396 kts | 115° |
| 2026-05-06 19:24 | 49.26085 | 16.56165 | 21374 ft | 393 kts | 116° |
| 2026-05-06 19:25 | 49.25113 | 16.60060 | 20910 ft | 388 kts | 120° |
| 2026-05-06 19:25 | 49.23696 | 16.63471 | 20425 ft | 374 kts | 137° |
| 2026-05-06 19:25 | 49.21768 | 16.66016 | 20120 ft | 362 kts | 153° |
| 2026-05-06 19:25 | 49.19520 | 16.67609 | 19844 ft | 353 kts | 168° |
| 2026-05-06 19:26 | 49.17125 | 16.68176 | 19574 ft | 345 kts | 183° |
| 2026-05-06 19:26 | 49.14753 | 16.67897 | 19311 ft | 342 kts | 189° |
| 2026-05-06 19:26 | 49.12388 | 16.67512 | 19047 ft | 341 kts | 189° |
| 2026-05-06 19:26 | 49.10029 | 16.67129 | 18784 ft | 340 kts | 189° |
| 2026-05-06 19:27 | 49.08470 | 16.66875 | 18615 ft | 340 kts | 189° |
| 2026-05-06 19:27 | 49.06123 | 16.66497 | 18357 ft | 338 kts | 188° |
| 2026-05-06 19:27 | 49.03784 | 16.66123 | 18101 ft | 338 kts | 188° |
| 2026-05-06 19:27 | 49.01451 | 16.65753 | 17814 ft | 337 kts | 188° |
| 2026-05-06 19:28 | 48.99125 | 16.65382 | 17519 ft | 335 kts | 188° |
| 2026-05-06 19:28 | 48.96808 | 16.65013 | 17129 ft | 334 kts | 188° |
| 2026-05-06 19:28 | 48.94507 | 16.64649 | 16742 ft | 331 kts | 188° |
| 2026-05-06 19:28 | 48.92223 | 16.64285 | 16350 ft | 330 kts | 188° |
| 2026-05-06 19:29 | 48.89945 | 16.63920 | 15964 ft | 329 kts | 188° |
| 2026-05-06 19:29 | 48.87676 | 16.63558 | 15587 ft | 327 kts | 188° |
| 2026-05-06 19:29 | 48.85417 | 16.63197 | 15218 ft | 326 kts | 188° |
| 2026-05-06 19:29 | 48.83168 | 16.62835 | 14844 ft | 324 kts | 188° |
| 2026-05-06 19:30 | 48.80931 | 16.62477 | 14482 ft | 322 kts | 188° |
| 2026-05-06 19:30 | 48.78694 | 16.62304 | 14121 ft | 322 kts | 180° |
| 2026-05-06 19:30 | 48.76468 | 16.62747 | 13764 ft | 324 kts | 170° |
| 2026-05-06 19:30 | 48.74274 | 16.63489 | 13392 ft | 322 kts | 171° |
| 2026-05-06 19:31 | 48.72091 | 16.64215 | 13001 ft | 320 kts | 171° |
| 2026-05-06 19:31 | 48.69914 | 16.64928 | 12749 ft | 319 kts | 171° |
| 2026-05-06 19:31 | 48.65581 | 16.66344 | 12757 ft | 319 kts | 171° |
| 2026-05-06 19:32 | 48.63413 | 16.67050 | 12757 ft | 319 kts | 171° |
| 2026-05-06 19:32 | 48.61245 | 16.67758 | 12757 ft | 319 kts | 171° |
| 2026-05-06 19:32 | 48.59103 | 16.68463 | 12759 ft | 319 kts | 170° |
| 2026-05-06 19:32 | 48.56935 | 16.69127 | 12749 ft | 315 kts | 176° |
| 2026-05-06 19:33 | 48.54793 | 16.68940 | 12762 ft | 308 kts | 195° |
| 2026-05-06 19:33 | 48.52854 | 16.67613 | 12761 ft | 307 kts | 215° |
| 2026-05-06 19:33 | 48.51418 | 16.65252 | 12763 ft | 311 kts | 238° |
| 2026-05-06 19:33 | 48.50736 | 16.62137 | 12763 ft | 320 kts | 261° |
| 2026-05-06 19:34 | 48.50953 | 16.58765 | 12764 ft | 330 kts | 284° |
| 2026-05-06 19:34 | 48.52071 | 16.55689 | 12762 ft | 347 kts | 306° |
| 2026-05-06 19:34 | 48.53920 | 16.53413 | 12758 ft | 341 kts | 329° |
| 2026-05-06 19:34 | 48.56141 | 16.52345 | 12765 ft | 331 kts | 346° |
| 2026-05-06 19:35 | 48.58394 | 16.51852 | 12757 ft | 325 kts | 350° |
| 2026-05-06 19:35 | 48.60627 | 16.51392 | 12752 ft | 323 kts | 349° |
| 2026-05-06 19:35 | 48.62851 | 16.50903 | 12752 ft | 323 kts | 348° |
| 2026-05-06 19:35 | 48.65055 | 16.50287 | 12752 ft | 321 kts | 344° |
| 2026-05-06 19:36 | 48.67287 | 16.50055 | 12750 ft | 326 kts | 9° |
| 2026-05-06 19:36 | 48.69331 | 16.51383 | 12758 ft | 328 kts | 39° |
| 2026-05-06 19:36 | 48.70718 | 16.54052 | 12755 ft | 323 kts | 70° |
| 2026-05-06 19:36 | 48.71062 | 16.57327 | 12754 ft | 313 kts | 102° |
| 2026-05-06 19:37 | 48.70451 | 16.60433 | 12762 ft | 305 kts | 121° |
| 2026-05-06 19:37 | 48.69300 | 16.63087 | 12762 ft | 299 kts | 136° |
| 2026-05-06 19:37 | 48.67738 | 16.65089 | 12758 ft | 293 kts | 154° |
| 2026-05-06 19:37 | 48.65885 | 16.66232 | 12759 ft | 282 kts | 167° |
| 2026-05-06 19:38 | 48.64046 | 16.66964 | 12752 ft | 263 kts | 171° |
| 2026-05-06 19:38 | 48.62317 | 16.67543 | 12754 ft | 245 kts | 172° |
| 2026-05-06 19:38 | 48.60689 | 16.68049 | 12755 ft | 236 kts | 172° |
| 2026-05-06 19:38 | 48.59090 | 16.68541 | 12756 ft | 234 kts | 172° |
| 2026-05-06 19:39 | 48.57501 | 16.69033 | 12750 ft | 231 kts | 174° |
| 2026-05-06 19:39 | 48.55961 | 16.68964 | 12761 ft | 223 kts | 199° |
| 2026-05-06 19:39 | 48.54646 | 16.67838 | 12761 ft | 217 kts | 223° |
| 2026-05-06 19:39 | 48.53832 | 16.65917 | 12768 ft | 222 kts | 250° |
| 2026-05-06 19:40 | 48.53716 | 16.63561 | 12765 ft | 233 kts | 277° |
| 2026-05-06 19:40 | 48.54424 | 16.61319 | 12760 ft | 245 kts | 307° |
| 2026-05-06 19:40 | 48.55867 | 16.59894 | 12758 ft | 257 kts | 340° |
| 2026-05-06 19:40 | 48.57612 | 16.59279 | 12753 ft | 254 kts | 344° |
| 2026-05-06 19:41 | 48.59328 | 16.58728 | 12756 ft | 251 kts | 344° |
| 2026-05-06 19:41 | 48.61035 | 16.58180 | 12757 ft | 250 kts | 343° |
| 2026-05-06 19:41 | 48.62743 | 16.57665 | 12756 ft | 251 kts | 351° |
| 2026-05-06 19:41 | 48.64465 | 16.58071 | 12775 ft | 257 kts | 27° |
| 2026-05-06 19:42 | 48.65795 | 16.59829 | 12790 ft | 262 kts | 63° |
| 2026-05-06 19:42 | 48.66258 | 16.62421 | 12598 ft | 253 kts | 100° |
| 2026-05-06 19:42 | 48.65738 | 16.64845 | 12656 ft | 244 kts | 131° |
| 2026-05-06 19:42 | 48.64490 | 16.66577 | 12749 ft | 243 kts | 161° |
| 2026-05-06 19:43 | 48.62887 | 16.67252 | 12756 ft | 240 kts | 172° |
| 2026-05-06 19:43 | 48.61253 | 16.67778 | 12756 ft | 240 kts | 172° |
| 2026-05-06 19:43 | 48.59617 | 16.68307 | 12757 ft | 240 kts | 172° |
| 2026-05-06 19:43 | 48.57982 | 16.68838 | 12747 ft | 240 kts | 172° |
| 2026-05-06 19:44 | 48.56353 | 16.69079 | 12755 ft | 232 kts | 191° |
| 2026-05-06 19:44 | 48.54875 | 16.68237 | 12761 ft | 228 kts | 215° |
| 2026-05-06 19:44 | 48.53821 | 16.66456 | 12763 ft | 232 kts | 240° |
| 2026-05-06 19:44 | 48.53437 | 16.64066 | 12761 ft | 242 kts | 268° |
| 2026-05-06 19:45 | 48.53899 | 16.61579 | 12762 ft | 255 kts | 297° |
| 2026-05-06 19:45 | 48.55192 | 16.59715 | 12760 ft | 267 kts | 329° |
| 2026-05-06 19:45 | 48.56993 | 16.58887 | 12764 ft | 274 kts | 343° |
| 2026-05-06 19:45 | 48.58860 | 16.58270 | 12762 ft | 275 kts | 344° |
| 2026-05-06 19:46 | 48.60732 | 16.57669 | 12759 ft | 275 kts | 344° |
| 2026-05-06 19:46 | 48.62609 | 16.57085 | 12575 ft | 275 kts | 348° |
| 2026-05-06 19:46 | 48.64493 | 16.57328 | 12222 ft | 276 kts | 22° |
| 2026-05-06 19:46 | 48.65966 | 16.59062 | 11885 ft | 267 kts | 59° |
| 2026-05-06 19:47 | 48.66545 | 16.61624 | 11765 ft | 259 kts | 93° |
| 2026-05-06 19:47 | 48.66198 | 16.64223 | 11755 ft | 251 kts | 124° |
| 2026-05-06 19:47 | 48.65085 | 16.66145 | 11762 ft | 240 kts | 153° |
| 2026-05-06 19:47 | 48.63564 | 16.67018 | 11762 ft | 234 kts | 171° |
| 2026-05-06 19:48 | 48.61974 | 16.67562 | 11759 ft | 235 kts | 172° |
| 2026-05-06 19:48 | 48.60377 | 16.68080 | 11762 ft | 235 kts | 172° |
| 2026-05-06 19:48 | 48.58775 | 16.68596 | 11763 ft | 235 kts | 172° |
| 2026-05-06 19:48 | 48.57184 | 16.69081 | 11751 ft | 231 kts | 178° |
| 2026-05-06 19:49 | 48.55641 | 16.68797 | 11760 ft | 223 kts | 204° |
| 2026-05-06 19:49 | 48.54384 | 16.67468 | 11713 ft | 223 kts | 229° |
| 2026-05-06 19:49 | 48.53700 | 16.65380 | 11763 ft | 230 kts | 256° |
| 2026-05-06 19:49 | 48.53775 | 16.62928 | 11762 ft | 243 kts | 284° |
| 2026-05-06 19:50 | 48.54720 | 16.60765 | 11759 ft | 256 kts | 316° |
| 2026-05-06 19:50 | 48.56349 | 16.59599 | 11698 ft | 265 kts | 342° |
| 2026-05-06 19:50 | 48.58189 | 16.59457 | 11380 ft | 270 kts | 12° |
| 2026-05-06 19:50 | 48.59822 | 16.60776 | 11063 ft | 268 kts | 49° |
| 2026-05-06 19:51 | 48.60676 | 16.63154 | 10732 ft | 260 kts | 85° |
| 2026-05-06 19:51 | 48.60543 | 16.65776 | 10383 ft | 247 kts | 118° |
| 2026-05-06 19:51 | 48.59555 | 16.67823 | 10030 ft | 236 kts | 148° |
| 2026-05-06 19:51 | 48.58097 | 16.68815 | 9672 ft | 229 kts | 170° |
| 2026-05-06 19:52 | 48.56579 | 16.69353 | 9365 ft | 226 kts | 171° |
| 2026-05-06 19:52 | 48.55052 | 16.69901 | 9022 ft | 224 kts | 171° |
| 2026-05-06 19:52 | 48.53542 | 16.70448 | 8680 ft | 223 kts | 171° |
| 2026-05-06 19:52 | 48.52032 | 16.70997 | 8331 ft | 222 kts | 171° |
| 2026-05-06 19:53 | 48.50538 | 16.71541 | 8033 ft | 219 kts | 171° |
| 2026-05-06 19:53 | 48.49054 | 16.72083 | 7806 ft | 219 kts | 171° |
| 2026-05-06 19:53 | 48.47573 | 16.72625 | 7427 ft | 220 kts | 171° |
| 2026-05-06 19:53 | 48.46088 | 16.73167 | 7028 ft | 222 kts | 171° |
| 2026-05-06 19:54 | 48.44527 | 16.73729 | 6325 ft | 237 kts | 171° |
| 2026-05-06 19:54 | 48.42943 | 16.74304 | 6056 ft | 228 kts | 171° |
| 2026-05-06 19:54 | 48.41449 | 16.74858 | 5988 ft | 216 kts | 172° |
| 2026-05-06 19:54 | 48.39999 | 16.75392 | 5990 ft | 214 kts | 172° |
| 2026-05-06 19:55 | 48.38553 | 16.75916 | 5991 ft | 213 kts | 174° |
| 2026-05-06 19:55 | 48.37108 | 16.75921 | 5993 ft | 206 kts | 198° |
| 2026-05-06 19:55 | 48.35861 | 16.74926 | 5997 ft | 205 kts | 223° |
| 2026-05-06 19:55 | 48.35081 | 16.73145 | 5996 ft | 208 kts | 249° |
| 2026-05-06 19:56 | 48.34977 | 16.70956 | 6000 ft | 215 kts | 274° |
| 2026-05-06 19:56 | 48.35228 | 16.68784 | 5996 ft | 209 kts | 274° |
| 2026-05-06 19:56 | 48.35476 | 16.66638 | 6001 ft | 208 kts | 275° |
| 2026-05-06 19:56 | 48.35906 | 16.64539 | 6000 ft | 214 kts | 287° |
| 2026-05-06 19:57 | 48.36659 | 16.62581 | 5999 ft | 220 kts | 300° |
| 2026-05-06 19:57 | 48.37718 | 16.60879 | 5995 ft | 226 kts | 313° |
| 2026-05-06 19:57 | 48.39049 | 16.59551 | 5995 ft | 233 kts | 327° |
| 2026-05-06 19:57 | 48.40591 | 16.58704 | 5995 ft | 238 kts | 339° |
| 2026-05-06 19:58 | 48.42177 | 16.58048 | 5995 ft | 230 kts | 340° |
| 2026-05-06 19:58 | 48.43687 | 16.57418 | 5989 ft | 224 kts | 341° |
| 2026-05-06 19:58 | 48.45194 | 16.56944 | 5981 ft | 228 kts | 357° |
| 2026-05-06 19:58 | 48.46723 | 16.57591 | 5989 ft | 234 kts | 28° |
| 2026-05-06 19:59 | 48.48075 | 16.58982 | 5982 ft | 236 kts | 34° |
| 2026-05-06 19:59 | 48.49374 | 16.60470 | 5703 ft | 235 kts | 36° |
| 2026-05-06 19:59 | 48.50664 | 16.61985 | 5373 ft | 235 kts | 35° |
| 2026-05-06 19:59 | 48.51947 | 16.63509 | 5087 ft | 234 kts | 34° |
| 2026-05-06 20:00 | 48.53371 | 16.64528 | 4986 ft | 224 kts | 3° |
| 2026-05-06 20:00 | 48.54939 | 16.64458 | 4986 ft | 228 kts | 348° |
| 2026-05-06 20:00 | 48.56512 | 16.64091 | 4986 ft | 229 kts | 346° |
| 2026-05-06 20:00 | 48.58082 | 16.63683 | 4988 ft | 229 kts | 346° |
| 2026-05-06 20:01 | 48.59543 | 16.62915 | 4986 ft | 219 kts | 318° |
| 2026-05-06 20:01 | 48.60444 | 16.61182 | 4983 ft | 208 kts | 283° |
| 2026-05-06 20:01 | 48.60484 | 16.59072 | 4985 ft | 202 kts | 248° |
| 2026-05-06 20:01 | 48.59868 | 16.57199 | 4979 ft | 199 kts | 238° |
| 2026-05-06 20:02 | 48.59125 | 16.55422 | 4982 ft | 200 kts | 236° |
| 2026-05-06 20:02 | 48.58392 | 16.53738 | 4976 ft | 184 kts | 236° |
| 2026-05-06 20:02 | 48.57703 | 16.52172 | 4985 ft | 177 kts | 235° |
| 2026-05-06 20:02 | 48.56992 | 16.50655 | 4984 ft | 177 kts | 233° |
| 2026-05-06 20:03 | 48.56255 | 16.49176 | 4975 ft | 178 kts | 232° |
| 2026-05-06 20:03 | 48.55424 | 16.47784 | 5056 ft | 181 kts | 221° |
| 2026-05-06 20:03 | 48.54297 | 16.46898 | 5138 ft | 188 kts | 201° |
| 2026-05-06 20:03 | 48.53028 | 16.46418 | 5047 ft | 188 kts | 196° |
| 2026-05-06 20:04 | 48.51747 | 16.46015 | 5005 ft | 189 kts | 195° |
| 2026-05-06 20:04 | 48.50460 | 16.45620 | 4990 ft | 189 kts | 195° |
| 2026-05-06 20:04 | 48.49174 | 16.45221 | 4984 ft | 188 kts | 196° |
| 2026-05-06 20:04 | 48.47907 | 16.44838 | 4987 ft | 188 kts | 195° |
| 2026-05-06 20:05 | 48.46601 | 16.44560 | 4991 ft | 190 kts | 190° |
| 2026-05-06 20:05 | 48.45290 | 16.44371 | 4989 ft | 189 kts | 189° |
| 2026-05-06 20:05 | 48.43972 | 16.44302 | 4988 ft | 192 kts | 176° |
| 2026-05-06 20:05 | 48.42667 | 16.44825 | 5018 ft | 194 kts | 169° |
| 2026-05-06 20:06 | 48.41361 | 16.45362 | 5020 ft | 194 kts | 171° |
| 2026-05-06 20:06 | 48.40056 | 16.45878 | 5007 ft | 194 kts | 169° |
| 2026-05-06 20:06 | 48.38751 | 16.46423 | 4997 ft | 195 kts | 169° |
| 2026-05-06 20:06 | 48.37450 | 16.46976 | 4994 ft | 195 kts | 169° |
| 2026-05-06 20:07 | 48.36141 | 16.47535 | 4995 ft | 196 kts | 169° |
| 2026-05-06 20:07 | 48.34828 | 16.48096 | 4994 ft | 196 kts | 169° |
| 2026-05-06 20:07 | 48.33513 | 16.48658 | 4868 ft | 196 kts | 169° |
| 2026-05-06 20:07 | 48.32208 | 16.49216 | 4653 ft | 194 kts | 170° |
| 2026-05-06 20:08 | 48.30913 | 16.49768 | 4410 ft | 193 kts | 170° |
| 2026-05-06 20:08 | 48.29627 | 16.50317 | 4156 ft | 191 kts | 170° |
| 2026-05-06 20:08 | 48.28352 | 16.50861 | 3902 ft | 190 kts | 170° |
| 2026-05-06 20:08 | 48.27096 | 16.51396 | 3639 ft | 186 kts | 171° |
| 2026-05-06 20:09 | 48.25882 | 16.51915 | 3396 ft | 176 kts | 172° |
| 2026-05-06 20:09 | 48.24727 | 16.52408 | 3174 ft | 169 kts | 172° |
| 2026-05-06 20:09 | 48.23612 | 16.52881 | 2954 ft | 165 kts | 172° |
| 2026-05-06 20:09 | 48.22519 | 16.53345 | 2746 ft | 162 kts | 172° |
| 2026-05-06 20:10 | 48.21444 | 16.53801 | 2530 ft | 159 kts | 172° |
| 2026-05-06 20:10 | 48.20392 | 16.54248 | 2343 ft | 159 kts | 172° |
| 2026-05-06 20:10 | 48.19364 | 16.54687 | 2137 ft | 148 kts | 172° |
| 2026-05-06 20:10 | 48.18409 | 16.55094 | 1929 ft | 137 kts | 171° |
| 2026-05-06 20:11 | 48.17525 | 16.55469 | 1765 ft | 128 kts | 171° |
| 2026-05-06 20:11 | 48.16688 | 16.55823 | 1594 ft | 122 kts | 171° |
| 2026-05-06 20:11 | 48.15901 | 16.56157 | 1427 ft | 115 kts | 169° |
| 2026-05-06 20:11 | 48.15114 | 16.56490 | 1279 ft | 118 kts | 166° |
| 2026-05-06 20:12 | 48.14325 | 16.56821 | 1119 ft | 118 kts | 166° |
| 2026-05-06 20:12 | 48.13527 | 16.57158 | 1010 ft | 119 kts | 165° |
| 2026-05-06 20:12 | 48.12733 | 16.57489 | 799 ft | 115 kts | 165° |
| 2026-05-06 20:12 | 48.11959 | 16.57826 | 672 ft | 116 kts | 163° |
| 2026-05-06 20:13 | 48.11208 | 16.58145 | 619 ft | 99 kts | 164° |
| 2026-05-06 20:13 | 48.10704 | 16.58357 | 618 ft | 58 kts | 164° |
| 2026-05-06 20:13 | 48.10368 | 16.58503 | 622 ft | 44 kts | 163° |
| 2026-05-06 20:13 | 48.10103 | 16.58609 | 609 ft | 34 kts | 170° |
| 2026-05-06 20:14 | 48.09896 | 16.58611 | 623 ft | 29 kts | 188° |
| 2026-05-06 20:14 | 48.09723 | 16.58570 | 614 ft | 20 kts | 189° |
| 2026-05-06 20:14 | 48.09637 | 16.58442 | 609 ft | 20 kts | 279° |
| 2026-05-06 20:14 | 48.09745 | 16.58345 | 610 ft | 18 kts | 344° |
| 2026-05-06 20:15 | 48.09873 | 16.58290 | 614 ft | 26 kts | 344° |
| 2026-05-06 20:15 | 48.10078 | 16.58203 | 620 ft | 31 kts | 344° |
| 2026-05-06 20:15 | 48.10277 | 16.58119 | 611 ft | 23 kts | 344° |
| 2026-05-06 20:15 | 48.10399 | 16.58066 | 618 ft | 7 kts | 343° |
| 2026-05-06 20:16 | 48.10400 | 16.58066 | 617 ft | 0 kts | 343° |
| 2026-05-06 20:16 | 48.10401 | 16.58065 | 616 ft | 0 kts | 343° |
| 2026-05-06 20:17 | 48.10413 | 16.58060 | 618 ft | 9 kts | 343° |
| 2026-05-06 20:17 | 48.10529 | 16.58010 | 615 ft | 18 kts | 344° |
| 2026-05-06 20:18 | 48.10652 | 16.57958 | 615 ft | 21 kts | 344° |
| 2026-05-06 20:18 | 48.10803 | 16.57896 | 622 ft | 24 kts | 344° |
| 2026-05-06 20:18 | 48.10957 | 16.57830 | 610 ft | 22 kts | 343° |
| 2026-05-06 20:18 | 48.11119 | 16.57761 | 618 ft | 28 kts | 344° |
| 2026-05-06 20:19 | 48.11301 | 16.57686 | 610 ft | 26 kts | 345° |
| 2026-05-06 20:19 | 48.11472 | 16.57613 | 618 ft | 25 kts | 344° |
| 2026-05-06 20:19 | 48.11633 | 16.57546 | 620 ft | 23 kts | 344° |
| 2026-05-06 20:19 | 48.11791 | 16.57479 | 613 ft | 22 kts | 343° |
| 2026-05-06 20:20 | 48.11810 | 16.57355 | 616 ft | 18 kts | 282° |
| 2026-05-06 20:20 | 48.11853 | 16.57169 | 610 ft | 15 kts | 275° |
| 2026-05-06 20:20 | 48.11856 | 16.57079 | 619 ft | 12 kts | 230° |
| 2026-05-06 20:20 | 48.11807 | 16.57040 | 618 ft | 0 kts | 205° |